Time;durP1;ratioP1;P1;durP2;ratioP2;P2;SDS_P1;SDS_P2;PMS_P1;PMS_P2;Temp;Humidity;BMP_temperature;BMP_pressure;BME280_temperature;BME280_humidity;BME280_pressure;Samples;Min_cycle;Max_cycle;Signal;HPM_P1;HPM_P2
2023/08/01 00:01:49;;;;;;;2.17;1.98;;;;;;;;;;4331734;32;317675;-80
2023/08/01 00:04:16;;;;;;;2.35;1.90;;;;;;;;;;4338385;32;317117;-80
2023/08/01 00:06:43;;;;;;;2.70;2.10;;;;;;;;;;4319326;32;416077;-78
2023/08/01 00:09:10;;;;;;;2.37;2.17;;;;;;;;;;4353022;32;316617;-79
2023/08/01 00:11:36;;;;;;;3.50;2.05;;;;;;;;;;4342869;32;316490;-79
2023/08/01 00:14:03;;;;;;;2.30;2.05;;;;;;;;;;4351667;32;317170;-78
2023/08/01 00:16:32;;;;;;;3.30;2.15;;;;;;;;;;4343477;32;317174;-80
2023/08/01 00:18:59;;;;;;;3.08;1.70;;;;;;;;;;4353183;32;317173;-78
2023/08/01 00:21:25;;;;;;;1.87;1.60;;;;;;;;;;4342522;32;317096;-81
2023/08/01 00:23:52;;;;;;;2.67;1.67;;;;;;;;;;4352575;32;332156;-80
2023/08/01 00:26:19;;;;;;;2.08;1.67;;;;;;;;;;4342352;32;316958;-82
2023/08/01 00:28:46;;;;;;;4.20;1.80;;;;;;;;;;4350294;32;317219;-81
2023/08/01 00:31:12;;;;;;;6.82;1.90;;;;;;;;;;4349976;32;317541;-78
2023/08/01 00:33:41;;;;;;;1.95;1.75;;;;;;;;;;4340427;32;316641;-78
2023/08/01 00:36:09;;;;;;;3.12;2.25;;;;;;;;;;4349011;32;317183;-79
2023/08/01 00:38:36;;;;;;;4.78;1.90;;;;;;;;;;4345773;32;317016;-76
2023/08/01 00:41:03;;;;;;;3.10;1.90;;;;;;;;;;4361443;32;316720;-77
2023/08/01 00:43:30;;;;;;;2.55;2.00;;;;;;;;;;4347684;32;317054;-79
2023/08/01 00:46:00;;;;;;;2.97;2.30;;;;;;;;;;4350983;32;317089;-79
2023/08/01 00:48:28;;;;;;;2.40;2.20;;;;;;;;;;4341979;32;316698;-79
2023/08/01 00:50:56;;;;;;;4.10;2.00;;;;;;;;;;4353202;32;317145;-79
2023/08/01 00:53:23;;;;;;;2.95;1.98;;;;;;;;;;4343274;32;317047;-82
2023/08/01 00:55:52;;;;;;;2.53;1.73;;;;;;;;;;4352358;32;317259;-81
2023/08/01 00:58:19;;;;;;;2.33;1.80;;;;;;;;;;4342903;32;317175;-80
2023/08/01 01:00:46;;;;;;;1.98;1.70;;;;;;;;;;4352624;32;317122;-80
2023/08/01 01:03:13;;;;;;;4.65;1.85;;;;;;;;;;4352842;32;317320;-83
2023/08/01 01:05:48;;;;;;;2.28;1.92;;;;;;;;;;4341920;32;317263;-80
2023/08/01 01:08:16;;;;;;;2.65;1.70;;;;;;;;;;4352730;32;316475;-80
2023/08/01 01:10:43;;;;;;;5.50;1.73;;;;;;;;;;4338963;32;416370;-81
2023/08/01 01:13:10;;;;;;;2.12;1.92;;;;;;;;;;4352413;32;317242;-82
2023/08/01 01:15:36;;;;;;;3.92;2.08;;;;;;;;;;4342707;32;316906;-82
2023/08/01 01:18:03;;;;;;;4.72;2.00;;;;;;;;;;4351265;32;316740;-80
2023/08/01 01:20:35;;;;;;;3.85;2.12;;;;;;;;;;4341560;32;339723;-80
2023/08/01 01:23:04;;;;;;;2.50;2.30;;;;;;;;;;4352936;32;317375;-80
2023/08/01 01:25:33;;;;;;;2.47;2.28;;;;;;;;;;4343120;32;317002;-80
2023/08/01 01:28:01;;;;;;;3.20;2.20;;;;;;;;;;4352556;32;317051;-80
2023/08/01 01:30:29;;;;;;;2.28;1.87;;;;;;;;;;4341551;32;317240;-81
2023/08/01 01:32:56;;;;;;;3.45;2.08;;;;;;;;;;4352631;32;317707;-80
2023/08/01 01:35:23;;;;;;;4.45;2.22;;;;;;;;;;4345636;32;317116;-81
2023/08/01 01:37:51;;;;;;;2.78;2.17;;;;;;;;;;4354864;32;316685;-81
2023/08/01 01:40:18;;;;;;;2.15;1.87;;;;;;;;;;4333461;32;317604;-82
2023/08/01 01:42:45;;;;;;;6.78;2.35;;;;;;;;;;4340109;32;317335;-80
2023/08/01 01:45:12;;;;;;;8.50;2.10;;;;;;;;;;4340138;32;316995;-81
2023/08/01 01:47:38;;;;;;;8.88;7.20;;;;;;;;;;4329618;32;317210;-80
2023/08/01 01:50:06;;;;;;;14.98;13.02;;;;;;;;;;4340439;32;317313;-81
2023/08/01 01:52:33;;;;;;;9.73;6.25;;;;;;;;;;4323831;32;319313;-81
2023/08/01 01:55:01;;;;;;;4.45;3.80;;;;;;;;;;4343921;32;317111;-81
2023/08/01 01:57:28;;;;;;;3.03;2.60;;;;;;;;;;4345279;32;316797;-80
2023/08/01 01:59:55;;;;;;;2.40;2.10;;;;;;;;;;4354551;32;317649;-82
2023/08/01 02:02:21;;;;;;;3.53;2.00;;;;;;;;;;4344095;32;317013;-81
2023/08/01 02:04:50;;;;;;;5.28;2.87;;;;;;;;;;4353907;32;348606;-82
2023/08/01 02:07:17;;;;;;;10.18;2.45;;;;;;;;;;4352985;32;345661;-82
2023/08/01 02:09:44;;;;;;;3.17;2.42;;;;;;;;;;4342259;32;417347;-81
2023/08/01 02:12:13;;;;;;;2.60;1.80;;;;;;;;;;4354967;32;317091;-82
2023/08/01 02:14:40;;;;;;;2.50;2.05;;;;;;;;;;4343408;32;323704;-81
2023/08/01 02:17:07;;;;;;;3.60;2.33;;;;;;;;;;4354804;32;317597;-80
2023/08/01 02:19:34;;;;;;;6.50;2.20;;;;;;;;;;4345011;32;316933;-81
2023/08/01 02:22:02;;;;;;;3.28;2.03;;;;;;;;;;4354974;32;317127;-81
2023/08/01 02:24:28;;;;;;;4.22;2.58;;;;;;;;;;4343733;32;316703;-80
2023/08/01 02:26:55;;;;;;;2.58;2.00;;;;;;;;;;4353398;32;316544;-80
2023/08/01 02:29:23;;;;;;;5.05;2.33;;;;;;;;;;4344249;32;317415;-80
2023/08/01 02:31:50;;;;;;;3.87;2.62;;;;;;;;;;4353127;32;358714;-81
2023/08/01 02:34:17;;;;;;;3.35;2.15;;;;;;;;;;4354097;32;317557;-80
2023/08/01 02:36:44;;;;;;;4.95;2.05;;;;;;;;;;4331501;32;416504;-80
2023/08/01 02:39:10;;;;;;;4.00;2.10;;;;;;;;;;4350323;32;317017;-80
2023/08/01 02:41:37;;;;;;;2.87;2.25;;;;;;;;;;4344725;32;317551;-80
2023/08/01 02:44:04;;;;;;;3.25;2.25;;;;;;;;;;4353743;32;317290;-79
2023/08/01 02:46:32;;;;;;;2.90;2.33;;;;;;;;;;4344208;32;317101;-78
2023/08/01 02:48:58;;;;;;;4.20;2.83;;;;;;;;;;4354181;32;316464;-79
2023/08/01 02:51:24;;;;;;;2.97;2.35;;;;;;;;;;4343660;32;316547;-80
2023/08/01 02:53:51;;;;;;;3.58;2.60;;;;;;;;;;4352669;32;338536;-80
2023/08/01 02:56:18;;;;;;;3.15;2.85;;;;;;;;;;4344336;32;317162;-80
2023/08/01 02:58:44;;;;;;;3.78;2.65;;;;;;;;;;4347479;32;317029;-80
2023/08/01 03:01:11;;;;;;;3.08;2.25;;;;;;;;;;4347179;32;317193;-79
2023/08/01 03:03:41;;;;;;;4.55;2.65;;;;;;;;;;4337384;32;317266;-79
2023/08/01 03:06:07;;;;;;;3.30;2.72;;;;;;;;;;4349179;32;316889;-80
2023/08/01 03:08:34;;;;;;;3.85;2.47;;;;;;;;;;4340612;32;316899;-80
2023/08/01 03:11:01;;;;;;;3.30;2.60;;;;;;;;;;4349822;32;316678;-79
2023/08/01 03:13:28;;;;;;;2.95;2.30;;;;;;;;;;4337607;32;317087;-80
2023/08/01 03:15:54;;;;;;;2.70;2.33;;;;;;;;;;4346689;32;316500;-79
2023/08/01 03:18:21;;;;;;;3.78;3.00;;;;;;;;;;4337595;32;317267;-80
2023/08/01 03:20:49;;;;;;;6.57;2.58;;;;;;;;;;4350741;32;316573;-79
2023/08/01 03:23:16;;;;;;;3.67;2.58;;;;;;;;;;4351191;32;317284;-80
2023/08/01 03:25:43;;;;;;;2.67;2.03;;;;;;;;;;4334117;32;416563;-80
2023/08/01 03:28:09;;;;;;;3.50;2.20;;;;;;;;;;4346879;32;316958;-79
2023/08/01 03:30:36;;;;;;;3.22;2.45;;;;;;;;;;4340173;32;322056;-79
2023/08/01 03:33:04;;;;;;;3.70;2.33;;;;;;;;;;4349343;32;317045;-80
2023/08/01 03:35:31;;;;;;;7.80;2.42;;;;;;;;;;4336408;32;331459;-80
2023/08/01 03:37:59;;;;;;;2.60;1.87;;;;;;;;;;4353156;32;317412;-80
2023/08/01 03:40:26;;;;;;;6.30;2.47;;;;;;;;;;4330495;32;316940;-80
2023/08/01 03:42:53;;;;;;;2.75;2.25;;;;;;;;;;4337804;32;317423;-80
2023/08/01 03:45:19;;;;;;;4.37;2.20;;;;;;;;;;4333659;32;317039;-81
2023/08/01 03:47:46;;;;;;;2.62;2.20;;;;;;;;;;4351312;32;327307;-81
2023/08/01 03:50:14;;;;;;;3.30;2.20;;;;;;;;;;4353428;32;317804;-80
2023/08/01 03:52:41;;;;;;;3.25;2.35;;;;;;;;;;4341699;32;341173;-79
2023/08/01 03:55:11;;;;;;;6.18;2.35;;;;;;;;;;4351022;32;353512;-79
2023/08/01 03:57:38;;;;;;;3.58;2.33;;;;;;;;;;4342342;32;317001;-79
2023/08/01 04:00:13;;;;;;;5.93;2.30;;;;;;;;;;4352924;32;317190;-80
2023/08/01 04:02:40;;;;;;;3.97;2.62;;;;;;;;;;4342199;32;317177;-80
2023/08/01 04:05:08;;;;;;;3.03;2.40;;;;;;;;;;4352929;32;317256;-81
2023/08/01 04:07:35;;;;;;;3.12;2.47;;;;;;;;;;4343414;32;317760;-80
2023/08/01 04:10:02;;;;;;;7.82;2.90;;;;;;;;;;4352848;32;317182;-80
2023/08/01 04:12:30;;;;;;;7.85;3.12;;;;;;;;;;4341906;32;317057;-81
2023/08/01 04:14:57;;;;;;;5.07;2.83;;;;;;;;;;4352908;32;317265;-80
2023/08/01 04:17:24;;;;;;;5.53;2.97;;;;;;;;;;4341972;32;316721;-81
2023/08/01 04:19:50;;;;;;;11.55;4.20;;;;;;;;;;4351501;32;317306;-80
2023/08/01 04:22:17;;;;;;;6.00;3.92;;;;;;;;;;4352619;32;318334;-80
2023/08/01 04:24:44;;;;;;;5.75;4.10;;;;;;;;;;4340380;32;416095;-80
2023/08/01 04:27:11;;;;;;;8.50;3.85;;;;;;;;;;4352073;32;317286;-80
2023/08/01 04:29:39;;;;;;;6.25;3.72;;;;;;;;;;4341865;32;335214;-81
2023/08/01 04:32:06;;;;;;;6.25;4.05;;;;;;;;;;4351627;32;316742;-80
2023/08/01 04:34:33;;;;;;;6.68;3.80;;;;;;;;;;4342979;32;317069;-80
2023/08/01 04:37:00;;;;;;;4.03;3.47;;;;;;;;;;4351483;32;317525;-80
2023/08/01 04:39:26;;;;;;;6.53;3.50;;;;;;;;;;4341397;32;343028;-81
2023/08/01 04:41:53;;;;;;;6.75;4.22;;;;;;;;;;4352735;32;317243;-81
2023/08/01 04:44:20;;;;;;;6.07;3.95;;;;;;;;;;4342710;32;316766;-81
2023/08/01 04:46:50;;;;;;;9.75;4.00;;;;;;;;;;4351611;32;317080;-80
2023/08/01 04:49:17;;;;;;;4.97;2.87;;;;;;;;;;4351660;32;317230;-80
2023/08/01 04:51:43;;;;;;;4.90;3.70;;;;;;;;;;4339284;32;416526;-80
2023/08/01 04:54:10;;;;;;;11.70;3.90;;;;;;;;;;4352956;32;317092;-80
2023/08/01 04:56:37;;;;;;;10.23;3.67;;;;;;;;;;4341829;32;318101;-80
2023/08/01 04:59:03;;;;;;;5.90;3.72;;;;;;;;;;4350953;32;319067;-80
2023/08/01 05:01:30;;;;;;;8.40;3.35;;;;;;;;;;4343283;32;317397;-81
2023/08/01 05:03:58;;;;;;;8.48;3.15;;;;;;;;;;4347821;32;316650;-80
2023/08/01 05:06:25;;;;;;;8.88;3.37;;;;;;;;;;4343408;32;316656;-81
2023/08/01 05:08:51;;;;;;;7.40;4.00;;;;;;;;;;4340092;32;317227;-80
2023/08/01 05:11:18;;;;;;;5.28;3.45;;;;;;;;;;4332548;32;317050;-81
2023/08/01 05:13:45;;;;;;;7.82;3.30;;;;;;;;;;4345775;32;316669;-78
2023/08/01 05:16:11;;;;;;;6.28;2.83;;;;;;;;;;4355476;32;315034;-80
2023/08/01 05:18:38;;;;;;;10.90;3.55;;;;;;;;;;4342226;32;316620;-79
2023/08/01 05:21:06;;;;;;;12.90;3.70;;;;;;;;;;4341219;32;317605;-80
2023/08/01 05:23:33;;;;;;;7.15;3.58;;;;;;;;;;4330956;32;318180;-81
2023/08/01 05:26:00;;;;;;;4.95;2.97;;;;;;;;;;4339927;32;316456;-82
2023/08/01 05:28:26;;;;;;;10.30;3.28;;;;;;;;;;4329915;32;335058;-82
2023/08/01 05:30:53;;;;;;;5.68;3.00;;;;;;;;;;4340399;32;317647;-80
2023/08/01 05:33:20;;;;;;;5.40;3.22;;;;;;;;;;4327820;32;316501;-81
2023/08/01 05:35:46;;;;;;;4.85;3.42;;;;;;;;;;4340008;32;347259;-80
2023/08/01 05:38:14;;;;;;;4.60;3.42;;;;;;;;;;4353607;32;316491;-81
2023/08/01 05:40:41;;;;;;;5.75;3.45;;;;;;;;;;4344764;32;317121;-80
2023/08/01 05:43:08;;;;;;;4.25;2.90;;;;;;;;;;4352910;32;316939;-80
2023/08/01 05:45:35;;;;;;;7.00;4.22;;;;;;;;;;4343862;32;317428;-80
2023/08/01 05:48:02;;;;;;;6.05;4.43;;;;;;;;;;4353782;32;317179;-80
2023/08/01 05:50:29;;;;;;;6.20;2.97;;;;;;;;;;4343943;32;334725;-80
2023/08/01 05:52:55;;;;;;;8.25;3.85;;;;;;;;;;4355064;32;317221;-80
2023/08/01 05:55:23;;;;;;;4.62;2.70;;;;;;;;;;4345254;32;316629;-80
2023/08/01 05:57:52;;;;;;;4.03;3.08;;;;;;;;;;4354549;32;317590;-80
2023/08/01 06:00:19;;;;;;;4.03;2.78;;;;;;;;;;4343733;32;316645;-80
2023/08/01 06:02:45;;;;;;;4.85;3.00;;;;;;;;;;4353754;32;316579;-80
2023/08/01 06:05:12;;;;;;;4.07;3.05;;;;;;;;;;4354706;32;317214;-80
2023/08/01 06:07:39;;;;;;;5.37;3.15;;;;;;;;;;4345202;32;316886;-80
2023/08/01 06:10:06;;;;;;;4.53;3.25;;;;;;;;;;4353710;32;317324;-80
2023/08/01 06:12:34;;;;;;;4.62;2.90;;;;;;;;;;4344577;32;316688;-80
2023/08/01 06:15:01;;;;;;;8.38;2.75;;;;;;;;;;4354770;32;316574;-82
2023/08/01 06:17:28;;;;;;;6.68;3.45;;;;;;;;;;4344624;32;317665;-83
2023/08/01 06:19:55;;;;;;;6.03;4.65;;;;;;;;;;4352627;32;316557;-82
2023/08/01 06:22:21;;;;;;;8.23;3.45;;;;;;;;;;4343755;32;317560;-80
2023/08/01 06:24:48;;;;;;;3.85;2.75;;;;;;;;;;4354886;32;317505;-83
2023/08/01 06:27:15;;;;;;;4.28;2.90;;;;;;;;;;4354191;32;316943;-84
2023/08/01 06:29:43;;;;;;;3.05;2.72;;;;;;;;;;4343988;32;316840;-83
2023/08/01 06:32:10;;;;;;;4.18;2.95;;;;;;;;;;4353994;32;317329;-83
2023/08/01 06:34:37;;;;;;;5.60;2.60;;;;;;;;;;4341800;32;317400;-87
2023/08/01 06:37:04;;;;;;;9.65;3.50;;;;;;;;;;4352422;32;317152;-83
2023/08/01 06:39:31;;;;;;;3.50;2.42;;;;;;;;;;4344278;32;317135;-83
2023/08/01 06:41:58;;;;;;;3.85;2.95;;;;;;;;;;4348092;32;317589;-84
2023/08/01 06:44:24;;;;;;;4.80;2.50;;;;;;;;;;4339008;32;353135;-81
2023/08/01 06:46:53;;;;;;;6.10;2.97;;;;;;;;;;4346980;32;317480;-79
2023/08/01 06:49:19;;;;;;;4.15;2.50;;;;;;;;;;4334486;32;394613;-79
2023/08/01 06:51:46;;;;;;;4.25;2.70;;;;;;;;;;4346111;32;317523;-78
2023/08/01 06:54:13;;;;;;;5.72;2.53;;;;;;;;;;4345953;32;317584;-79
2023/08/01 06:56:39;;;;;;;3.47;2.50;;;;;;;;;;4327645;32;317677;-79
2023/08/01 06:59:06;;;;;;;3.33;2.57;;;;;;;;;;4331564;32;315933;-85
2023/08/01 07:01:34;;;;;;;4.78;2.55;;;;;;;;;;4362310;32;316729;-85
2023/08/01 07:04:03;;;;;;;3.53;2.53;;;;;;;;;;4344038;32;316789;-85
2023/08/01 07:06:29;;;;;;;6.05;2.50;;;;;;;;;;4353073;32;316589;-86
2023/08/01 07:08:57;;;;;;;5.15;2.45;;;;;;;;;;4343771;32;316691;-86
2023/08/01 07:11:24;;;;;;;3.30;2.50;;;;;;;;;;4353986;32;316714;-86
2023/08/01 07:13:51;;;;;;;3.83;2.30;;;;;;;;;;4352502;32;316321;-88
2023/08/01 07:16:18;;;;;;;3.58;2.42;;;;;;;;;;4339655;32;416890;-86
2023/08/01 07:18:44;;;;;;;3.20;2.80;;;;;;;;;;4343846;32;325255;-89
2023/08/01 07:21:12;;;;;;;8.05;2.80;;;;;;;;;;4343546;32;316932;-88
2023/08/01 07:23:39;;;;;;;9.23;3.17;;;;;;;;;;4353423;32;316784;-88
2023/08/01 07:26:06;;;;;;;4.18;2.40;;;;;;;;;;4333910;32;316621;-86
2023/08/01 07:28:33;;;;;;;4.32;2.40;;;;;;;;;;4346344;32;317247;-84
2023/08/01 07:31:00;;;;;;;8.48;2.72;;;;;;;;;;4342753;32;317284;-85
2023/08/01 07:33:27;;;;;;;3.22;2.22;;;;;;;;;;4346265;32;317729;-87
2023/08/01 07:35:54;;;;;;;7.22;2.20;;;;;;;;;;4342359;32;316651;-87
2023/08/01 07:38:22;;;;;;;9.13;2.47;;;;;;;;;;4352400;32;316651;-85
2023/08/01 07:40:49;;;;;;;8.50;2.28;;;;;;;;;;4353602;32;317207;-81
2023/08/01 07:43:16;;;;;;;2.92;1.90;;;;;;;;;;4343299;32;317355;-81
2023/08/01 07:45:43;;;;;;;2.60;2.15;;;;;;;;;;4352105;32;317029;-80
2023/08/01 07:48:09;;;;;;;5.45;2.50;;;;;;;;;;4343176;32;333122;-80
2023/08/01 07:50:36;;;;;;;3.90;2.50;;;;;;;;;;4352641;32;316894;-81
2023/08/01 07:53:03;;;;;;;4.43;2.15;;;;;;;;;;4341305;32;316909;-82
2023/08/01 07:55:34;;;;;;;3.10;2.37;;;;;;;;;;4350669;32;355673;-81
2023/08/01 07:58:01;;;;;;;3.90;2.78;;;;;;;;;;4343481;32;316887;-81
2023/08/01 08:00:28;;;;;;;4.35;2.35;;;;;;;;;;4352057;32;317123;-80
2023/08/01 08:02:55;;;;;;;2.67;1.80;;;;;;;;;;4341736;32;317474;-82
2023/08/01 08:05:21;;;;;;;7.72;2.30;;;;;;;;;;4353068;32;317723;-82
2023/08/01 08:07:52;;;;;;;2.28;1.98;;;;;;;;;;4352826;32;317334;-82
2023/08/01 08:10:19;;;;;;;2.37;1.90;;;;;;;;;;4339890;32;415978;-81
2023/08/01 08:12:47;;;;;;;4.50;2.40;;;;;;;;;;4352049;32;317621;-82
2023/08/01 08:15:15;;;;;;;2.90;2.10;;;;;;;;;;4342020;32;316748;-81
2023/08/01 08:17:42;;;;;;;3.70;2.15;;;;;;;;;;4351977;32;317546;-77
2023/08/01 08:20:09;;;;;;;3.05;1.95;;;;;;;;;;4340628;32;317306;-79
2023/08/01 08:22:36;;;;;;;2.72;2.17;;;;;;;;;;4350690;32;316788;-77
2023/08/01 08:25:02;;;;;;;2.60;1.87;;;;;;;;;;4340349;32;317614;-78
2023/08/01 08:27:29;;;;;;;4.00;2.15;;;;;;;;;;4350987;32;317337;-81
2023/08/01 08:29:57;;;;;;;2.42;1.90;;;;;;;;;;4341286;32;316860;-79
2023/08/01 08:32:24;;;;;;;3.80;2.03;;;;;;;;;;4351228;32;317386;-79
2023/08/01 08:34:51;;;;;;;1.92;1.65;;;;;;;;;;4351634;32;317506;-77
2023/08/01 08:37:18;;;;;;;5.87;2.12;;;;;;;;;;4339139;32;418103;-77
2023/08/01 08:39:44;;;;;;;2.30;1.62;;;;;;;;;;4353101;32;316799;-77
2023/08/01 08:42:11;;;;;;;2.95;2.30;;;;;;;;;;4343024;32;317244;-76
2023/08/01 08:44:44;;;;;;;6.60;2.28;;;;;;;;;;4355346;32;317756;-77
2023/08/01 08:47:13;;;;;;;3.53;2.37;;;;;;;;;;4344142;32;349169;-77
2023/08/01 08:49:41;;;;;;;2.55;2.10;;;;;;;;;;4354778;32;317020;-78
2023/08/01 08:52:10;;;;;;;2.40;1.92;;;;;;;;;;4345053;32;317499;-80
2023/08/01 08:54:37;;;;;;;3.15;2.10;;;;;;;;;;4355303;32;329949;-78
2023/08/01 08:57:06;;;;;;;3.37;2.20;;;;;;;;;;4344357;32;323698;-78
2023/08/01 08:59:34;;;;;;;12.18;2.60;;;;;;;;;;4354450;32;317041;-80
2023/08/01 09:02:03;;;;;;;3.08;2.20;;;;;;;;;;4344480;32;359329;-78
2023/08/01 09:04:32;;;;;;;3.35;2.28;;;;;;;;;;4346922;32;316720;-79
2023/08/01 09:07:03;;;;;;;3.28;2.58;;;;;;;;;;4330712;32;316917;-77
2023/08/01 09:09:30;;;;;;;2.90;2.33;;;;;;;;;;4350463;32;316666;-81
2023/08/01 09:11:57;;;;;;;3.95;2.00;;;;;;;;;;4329655;32;317760;-79
2023/08/01 09:14:23;;;;;;;6.37;2.78;;;;;;;;;;4340949;32;317221;-80
2023/08/01 09:16:50;;;;;;;5.07;2.25;;;;;;;;;;4340477;32;316777;-80
2023/08/01 09:19:18;;;;;;;2.33;1.90;;;;;;;;;;4340274;32;416290;-81
2023/08/01 09:21:47;;;;;;;3.35;2.00;;;;;;;;;;4340384;32;317434;-80
2023/08/01 09:24:15;;;;;;;4.50;2.40;;;;;;;;;;4330663;32;317232;-78
2023/08/01 09:26:43;;;;;;;2.40;2.20;;;;;;;;;;4339010;32;317031;-79
2023/08/01 09:29:09;;;;;;;4.15;2.15;;;;;;;;;;4330920;32;316702;-80
2023/08/01 09:31:37;;;;;;;4.07;2.03;;;;;;;;;;4340505;32;317225;-79
2023/08/01 09:34:06;;;;;;;2.55;2.30;;;;;;;;;;4330717;32;317217;-78
2023/08/01 09:36:33;;;;;;;4.62;2.53;;;;;;;;;;4348953;32;316985;-78
2023/08/01 09:39:03;;;;;;;4.55;2.05;;;;;;;;;;4343898;32;334147;-78
2023/08/01 09:41:30;;;;;;;3.97;2.17;;;;;;;;;;4354828;32;316878;-78
2023/08/01 09:43:57;;;;;;;4.50;2.30;;;;;;;;;;4345929;32;317153;-78
2023/08/01 09:46:25;;;;;;;3.50;1.92;;;;;;;;;;4355192;32;317429;-77
2023/08/01 09:48:52;;;;;;;2.22;1.95;;;;;;;;;;4348869;32;317318;-80
2023/08/01 09:51:19;;;;;;;2.70;2.45;;;;;;;;;;4354802;32;316710;-81
2023/08/01 09:53:52;;;;;;;4.18;2.25;;;;;;;;;;4355653;32;317423;-81
2023/08/01 09:56:22;;;;;;;3.72;2.55;;;;;;;;;;4340924;32;416197;-83
2023/08/01 09:58:49;;;;;;;3.90;2.17;;;;;;;;;;4355127;32;316485;-81
2023/08/01 10:01:17;;;;;;;2.65;1.85;;;;;;;;;;4342719;32;349877;-85
2023/08/01 10:03:47;;;;;;;3.85;1.95;;;;;;;;;;4353783;32;317287;-82
2023/08/01 10:06:17;;;;;;;2.60;2.30;;;;;;;;;;4345029;32;317046;-82
2023/08/01 10:08:45;;;;;;;2.42;2.00;;;;;;;;;;4353440;32;316942;-85
2023/08/01 10:11:13;;;;;;;2.90;1.77;;;;;;;;;;4341983;32;317132;-82
2023/08/01 10:13:42;;;;;;;2.30;1.85;;;;;;;;;;4353903;32;317152;-86
2023/08/01 10:16:09;;;;;;;4.05;1.83;;;;;;;;;;4343194;32;317765;-86
2023/08/01 10:18:38;;;;;;;3.70;2.33;;;;;;;;;;4354802;32;316732;-81
2023/08/01 10:21:06;;;;;;;2.77;1.90;;;;;;;;;;4343508;32;329581;-83
2023/08/01 10:23:34;;;;;;;3.65;2.53;;;;;;;;;;4354810;32;317395;-84
2023/08/01 10:26:02;;;;;;;6.45;2.22;;;;;;;;;;4343769;32;317359;-87
2023/08/01 10:28:33;;;;;;;2.70;1.98;;;;;;;;;;4354766;32;316776;-83
2023/08/01 10:31:10;;;;;;;2.85;2.10;;;;;;;;;;4344634;32;317809;-87
2023/08/01 10:33:37;;;;;;;5.05;2.12;;;;;;;;;;4354281;32;316763;-82
2023/08/01 10:36:14;;;;;;;2.47;2.28;;;;;;;;;;4342984;32;317710;-81
2023/08/01 10:38:47;;;;;;;2.33;2.10;;;;;;;;;;4352147;32;324824;-83
2023/08/01 10:41:20;;;;;;;4.15;2.28;;;;;;;;;;4342476;32;317462;-83
2023/08/01 10:43:47;;;;;;;3.53;2.45;;;;;;;;;;4351581;32;317347;-77
2023/08/01 10:46:15;;;;;;;5.32;2.50;;;;;;;;;;4341608;32;317326;-77
2023/08/01 10:48:52;;;;;;;3.90;1.62;;;;;;;;;;4352337;32;317309;-77
2023/08/01 10:51:19;;;;;;;2.80;2.28;;;;;;;;;;4341460;32;416816;-77
2023/08/01 10:53:47;;;;;;;2.75;2.03;;;;;;;;;;4351111;32;317519;-77
2023/08/01 10:56:18;;;;;;;3.58;2.55;;;;;;;;;;4343833;32;317243;-77
2023/08/01 10:58:45;;;;;;;2.60;1.87;;;;;;;;;;4353078;32;317383;-78
2023/08/01 11:01:12;;;;;;;5.22;2.40;;;;;;;;;;4343168;32;317685;-83
2023/08/01 11:03:41;;;;;;;5.00;1.95;;;;;;;;;;4353046;32;316945;-82
2023/08/01 11:06:08;;;;;;;3.78;2.42;;;;;;;;;;4341969;32;316669;-81
2023/08/01 11:08:36;;;;;;;2.87;2.05;;;;;;;;;;4350648;32;316640;-80
2023/08/01 11:11:03;;;;;;;3.45;2.20;;;;;;;;;;4341907;32;317457;-80
2023/08/01 11:13:29;;;;;;;2.10;1.90;;;;;;;;;;4352213;32;317861;-80
2023/08/01 11:15:56;;;;;;;3.83;2.10;;;;;;;;;;4341551;32;317004;-79
2023/08/01 11:18:23;;;;;;;5.80;2.12;;;;;;;;;;4353006;32;316983;-80
2023/08/01 11:20:51;;;;;;;3.08;2.15;;;;;;;;;;4352559;32;316729;-80
2023/08/01 11:23:18;;;;;;;2.87;2.10;;;;;;;;;;4339878;32;416246;-80
2023/08/01 11:25:48;;;;;;;2.50;2.20;;;;;;;;;;4353362;32;317385;-80
2023/08/01 11:28:18;;;;;;;4.07;2.22;;;;;;;;;;4344286;32;317216;-80
2023/08/01 11:30:45;;;;;;;2.58;2.37;;;;;;;;;;4353911;32;316950;-80
2023/08/01 11:33:15;;;;;;;2.83;2.45;;;;;;;;;;4343954;32;317513;-80
2023/08/01 11:35:42;;;;;;;2.60;2.12;;;;;;;;;;4353502;32;317099;-80
2023/08/01 11:38:10;;;;;;;2.80;2.30;;;;;;;;;;4342322;32;317462;-80
2023/08/01 11:40:38;;;;;;;2.55;2.22;;;;;;;;;;4352513;32;317061;-80
2023/08/01 11:43:04;;;;;;;4.00;2.28;;;;;;;;;;4344209;32;317296;-80
2023/08/01 11:45:31;;;;;;;3.03;2.00;;;;;;;;;;4354057;32;316866;-79
2023/08/01 11:47:58;;;;;;;2.55;1.67;;;;;;;;;;4342925;32;317234;-79
2023/08/01 11:50:26;;;;;;;2.00;1.80;;;;;;;;;;4352736;32;317346;-79
2023/08/01 11:52:53;;;;;;;4.50;2.58;;;;;;;;;;4342504;32;317691;-81
2023/08/01 11:55:23;;;;;;;2.75;2.20;;;;;;;;;;4352108;32;317333;-80
2023/08/01 11:57:54;;;;;;;2.42;1.80;;;;;;;;;;4352523;32;316808;-80
2023/08/01 12:00:25;;;;;;;3.83;2.00;;;;;;;;;;4338656;32;415979;-80
2023/08/01 12:02:52;;;;;;;5.50;2.42;;;;;;;;;;4348554;32;317457;-82
2023/08/01 12:05:23;;;;;;;2.80;2.22;;;;;;;;;;4343041;32;317340;-79
2023/08/01 12:07:50;;;;;;;7.90;2.40;;;;;;;;;;4337352;32;317497;-80
2023/08/01 12:10:17;;;;;;;3.83;2.45;;;;;;;;;;4324049;32;417778;-79
2023/08/01 12:12:47;;;;;;;2.53;1.80;;;;;;;;;;4337922;32;316812;-79
2023/08/01 12:15:15;;;;;;;2.70;2.10;;;;;;;;;;4328649;32;316573;-80
2023/08/01 12:17:41;;;;;;;2.30;2.10;;;;;;;;;;4338052;32;316596;-80
2023/08/01 12:20:09;;;;;;;2.22;1.87;;;;;;;;;;4329377;32;317311;-80
2023/08/01 12:22:36;;;;;;;2.40;1.85;;;;;;;;;;4338187;32;317196;-79
2023/08/01 12:25:03;;;;;;;3.17;1.90;;;;;;;;;;4327278;32;317101;-79
2023/08/01 12:27:30;;;;;;;3.35;1.80;;;;;;;;;;4337272;32;316649;-81
2023/08/01 12:29:58;;;;;;;3.75;2.08;;;;;;;;;;4328703;32;317694;-81
2023/08/01 12:32:24;;;;;;;8.07;2.53;;;;;;;;;;4338914;32;317355;-81
2023/08/01 12:34:51;;;;;;;2.42;1.90;;;;;;;;;;4338237;32;316980;-81
2023/08/01 12:37:18;;;;;;;4.03;2.75;;;;;;;;;;4339809;32;417942;-80
2023/08/01 12:39:44;;;;;;;3.55;1.98;;;;;;;;;;4352911;32;316653;-82
2023/08/01 12:42:11;;;;;;;2.42;1.80;;;;;;;;;;4343634;32;317045;-81
2023/08/01 12:44:38;;;;;;;2.60;2.05;;;;;;;;;;4351948;32;316647;-81
2023/08/01 12:47:08;;;;;;;2.53;1.80;;;;;;;;;;4343655;32;316505;-81
2023/08/01 12:49:34;;;;;;;3.08;2.33;;;;;;;;;;4344123;32;317881;-81
2023/08/01 12:52:04;;;;;;;3.15;2.58;;;;;;;;;;4328556;32;316584;-80
2023/08/01 12:54:31;;;;;;;3.37;2.87;;;;;;;;;;4340668;32;316821;-81
2023/08/01 12:56:57;;;;;;;2.62;2.22;;;;;;;;;;4343003;32;317274;-80
2023/08/01 12:59:24;;;;;;;4.75;2.95;;;;;;;;;;4351853;32;317496;-80
2023/08/01 13:01:51;;;;;;;6.12;2.80;;;;;;;;;;4354017;32;317318;-80
2023/08/01 13:04:19;;;;;;;4.25;2.55;;;;;;;;;;4341015;32;416594;-81
2023/08/01 13:06:46;;;;;;;2.87;2.12;;;;;;;;;;4353432;32;317293;-80
2023/08/01 13:09:12;;;;;;;3.33;2.92;;;;;;;;;;4340813;32;317539;-81
2023/08/01 13:11:39;;;;;;;6.20;2.22;;;;;;;;;;4337880;32;316670;-81
2023/08/01 13:14:06;;;;;;;2.73;2.17;;;;;;;;;;4325402;32;316912;-81
2023/08/01 13:16:32;;;;;;;3.70;2.97;;;;;;;;;;4338686;32;316442;-81
2023/08/01 13:18:59;;;;;;;10.13;2.70;;;;;;;;;;4328769;32;317242;-81
2023/08/01 13:21:27;;;;;;;7.53;2.40;;;;;;;;;;4337144;32;318491;-80
2023/08/01 13:23:54;;;;;;;3.12;2.22;;;;;;;;;;4326984;32;317331;-81
2023/08/01 13:26:21;;;;;;;3.35;2.20;;;;;;;;;;4337333;32;316823;-80
2023/08/01 13:28:47;;;;;;;5.10;2.97;;;;;;;;;;4338179;32;316523;-81
2023/08/01 13:31:14;;;;;;;4.20;2.60;;;;;;;;;;4330040;32;317424;-83
2023/08/01 13:33:41;;;;;;;3.72;2.65;;;;;;;;;;4340765;32;317368;-81
2023/08/01 13:36:07;;;;;;;1.95;1.73;;;;;;;;;;4338274;32;317173;-82
2023/08/01 13:38:35;;;;;;;3.42;3.12;;;;;;;;;;4353664;32;317266;-81
2023/08/01 13:41:02;;;;;;;4.57;2.55;;;;;;;;;;4343961;32;317103;-83
2023/08/01 13:43:29;;;;;;;4.22;2.47;;;;;;;;;;4353859;32;324620;-84
2023/08/01 13:45:56;;;;;;;5.00;2.58;;;;;;;;;;4335015;32;317507;-83
2023/08/01 13:48:22;;;;;;;2.42;2.20;;;;;;;;;;4341077;32;317449;-81
2023/08/01 13:50:49;;;;;;;9.00;2.90;;;;;;;;;;4339122;32;316488;-82
2023/08/01 13:53:17;;;;;;;8.68;2.50;;;;;;;;;;4331007;32;316522;-82
2023/08/01 13:55:45;;;;;;;5.60;2.70;;;;;;;;;;4352760;32;317056;-83
2023/08/01 13:58:12;;;;;;;4.97;2.45;;;;;;;;;;4346033;32;317440;-86
2023/08/01 14:00:39;;;;;;;5.05;2.80;;;;;;;;;;4354453;32;316743;-82
2023/08/01 14:03:06;;;;;;;4.18;2.45;;;;;;;;;;4345552;32;317215;-80
2023/08/01 14:05:32;;;;;;;3.65;2.22;;;;;;;;;;4355094;32;317356;-85
2023/08/01 14:08:01;;;;;;;2.25;2.05;;;;;;;;;;4344077;32;317040;-84
2023/08/01 14:10:28;;;;;;;3.78;2.30;;;;;;;;;;4353600;32;316538;-83
2023/08/01 14:12:56;;;;;;;2.40;1.98;;;;;;;;;;4343126;32;337871;-82
2023/08/01 14:15:23;;;;;;;3.12;2.75;;;;;;;;;;4353398;32;316506;-84
2023/08/01 14:17:50;;;;;;;3.40;2.50;;;;;;;;;;4354706;32;316499;-82
2023/08/01 14:20:16;;;;;;;2.95;2.05;;;;;;;;;;4346017;32;317480;-83
2023/08/01 14:22:43;;;;;;;4.10;2.58;;;;;;;;;;4352740;32;317346;-82
2023/08/01 14:25:10;;;;;;;2.50;2.15;;;;;;;;;;4341644;32;323765;-82
2023/08/01 14:27:37;;;;;;;3.40;2.25;;;;;;;;;;4352390;32;317356;-81
2023/08/01 14:30:06;;;;;;;2.70;2.15;;;;;;;;;;4344120;32;317095;-82